Hlavní strana
METAR-TAF:

METAR-TAF

Letiště :

Stavanger, Norsko

zeměpisná šířka: 58-53N, zeměpisná délka: 005-38E, výška: 0 m

Aktuální stav počasí

Zpráva byla vytvořena před 44 minutami, v 22:50 UTC
Jihojihovýchodní vítr 14 kt
Teplota 10°C
Vlhkost vzduchu 76%
Tlak 1025 hPa
Viditelnost 10 km a více
Oblačno až skoro zataženo ve výšce 4000 ft

METAR: ENZV 152250Z 15014KT 9999 BKN040 10/06 Q1025

Čas: 00:34 (23:34 UTC)

Předpověď počasí

Předpověď platná od 15 v 18 UTC do 16 v 18 UTC
Jihojihovýchodní vítr 15 kt s nárazy do 25 kt
Viditelnost 10 km a více
Skoro jasno ve výšce 1000 ft
Oblačno až skoro zataženo ve výšce 2000 ft
Dočasný
od 15 v 20 UTC do 16 v 18 UTC
Viditelnost: 4000 m
Oblačno až skoro zataženo ve výšce 800 ft
slabé mrholení, kouřmo
Změna
od 16 v 15 UTC do 16 v 18 UTC
Jihojihovýchodní vítr 8 kt

TAF: ENZV 1518/1618 15015G25KT 9999 FEW010 BKN020 TEMPO 1520/1618 4000 -DZ BR BKN008 BECMG 1615/1618 15008KT

Stav a předpovědi počasí z více než 4 000 letišť (zprávy METAR a TAF).

Červené a žluté tečky na mapě představují dostupné meteorologické stanice.

Když kurzor umístíte na tečku, zobrazí se název stanice.

Pak kliknutím zobrazíte stav a předpověď počasí.

Chcete-li změnit mapu, kliknutím na zelené tlačítko se znaménkem +mapu přiblížíte, kliknutím na zelené tlačítko se znaménkem – mapu oddálíte a kliknutím na zelené šipky přejdete na sousední mapy.


METAR-TAF: